createdAt,value
2023-05-19T00:00:48.979Z,92980.00
2023-05-19T00:01:47.237Z,92982.00
2023-05-19T00:02:47.340Z,92978.00
2023-05-19T00:03:47.219Z,92982.00
2023-05-19T00:04:47.220Z,92978.00
2023-05-19T00:05:47.221Z,92978.00
2023-05-19T00:06:47.205Z,92982.00
2023-05-19T00:07:47.197Z,92980.00
2023-05-19T00:08:47.192Z,92980.00
2023-05-19T00:09:47.208Z,92978.00
2023-05-19T00:10:47.186Z,92978.00
2023-05-19T00:11:47.166Z,92976.00
2023-05-19T00:12:48.096Z,92976.00
2023-05-19T00:13:47.149Z,92975.00
2023-05-19T00:14:47.139Z,92971.00
2023-05-19T00:15:47.144Z,92973.00
2023-05-19T00:16:47.144Z,92971.00
2023-05-19T00:17:47.134Z,92971.00
2023-05-19T00:18:47.124Z,92971.00
2023-05-19T00:19:47.114Z,92971.00
2023-05-19T00:20:47.110Z,92971.00
2023-05-19T00:21:47.141Z,92971.00
2023-05-19T00:22:47.100Z,92971.00
2023-05-19T00:23:47.119Z,92969.00
2023-05-19T00:24:47.105Z,92969.00
2023-05-19T00:25:47.120Z,92971.00
2023-05-19T00:26:47.091Z,92969.00
2023-05-19T00:27:47.083Z,92971.00
2023-05-19T00:28:47.072Z,92971.00
2023-05-19T00:29:47.066Z,92973.00
2023-05-19T00:30:47.085Z,92969.00
2023-05-19T00:31:47.068Z,92969.00
2023-05-19T00:32:47.147Z,92971.00
2023-05-19T00:33:47.069Z,92971.00
2023-05-19T00:34:47.075Z,92969.00
2023-05-19T00:35:47.066Z,92969.00
2023-05-19T00:36:47.076Z,92969.00
2023-05-19T00:37:47.069Z,92967.00
2023-05-19T00:38:47.051Z,92967.00
2023-05-19T00:39:47.044Z,92969.00
2023-05-19T00:40:47.048Z,92969.00
2023-05-19T00:41:47.086Z,92969.00
2023-05-19T00:42:47.039Z,92971.00
2023-05-19T00:43:47.062Z,92971.00
2023-05-19T00:44:47.030Z,92969.00
2023-05-19T00:45:47.044Z,92969.00
2023-05-19T00:46:47.122Z,92967.00
2023-05-19T00:47:47.068Z,92965.00
2023-05-19T00:48:47.044Z,92965.00
2023-05-19T00:49:47.095Z,92965.00
2023-05-19T00:50:47.047Z,92965.00
2023-05-19T00:51:47.018Z,92965.00
2023-05-19T00:52:47.010Z,92965.00
2023-05-19T00:53:47.007Z,92967.00
2023-05-19T00:54:47.000Z,92967.00
2023-05-19T00:55:47.008Z,92967.00
2023-05-19T00:56:47.006Z,92965.00
2023-05-19T00:57:46.989Z,92965.00
2023-05-19T00:58:46.988Z,92965.00
2023-05-19T00:59:46.994Z,92963.00
2023-05-19T01:00:46.980Z,92963.00
2023-05-19T01:01:46.968Z,92963.00
2023-05-19T01:02:47.023Z,92965.00
2023-05-19T01:03:47.201Z,92965.00
2023-05-19T01:04:46.959Z,92963.00
2023-05-19T01:05:46.947Z,92961.00
2023-05-19T01:06:46.964Z,92961.00
2023-05-19T01:07:46.932Z,92959.00
2023-05-19T01:08:46.934Z,92957.00
2023-05-19T01:09:46.928Z,92961.00
2023-05-19T01:10:46.946Z,92961.00
2023-05-19T01:11:46.982Z,92961.00
2023-05-19T01:12:46.989Z,92963.00
2023-05-19T01:13:47.026Z,92959.00
2023-05-19T01:14:47.030Z,92959.00
2023-05-19T01:15:47.062Z,92957.00
2023-05-19T01:16:47.143Z,92957.00
2023-05-19T01:17:47.093Z,92957.00
2023-05-19T01:18:47.146Z,92955.00
2023-05-19T01:19:47.128Z,92955.00
2023-05-19T01:20:47.172Z,92953.00
2023-05-19T01:21:47.184Z,92951.00
2023-05-19T01:22:47.206Z,92951.00
2023-05-19T01:23:47.209Z,92951.00
2023-05-19T01:24:47.236Z,92955.00
2023-05-19T01:25:47.262Z,92953.00
2023-05-19T01:26:47.291Z,92957.00
2023-05-19T01:27:47.314Z,92957.00
2023-05-19T01:28:47.321Z,92955.00
2023-05-19T01:29:47.376Z,92959.00
2023-05-19T01:30:47.383Z,92955.00
2023-05-19T01:31:47.494Z,92955.00
2023-05-19T01:32:47.451Z,92955.00
2023-05-19T01:33:47.455Z,92955.00
2023-05-19T01:34:47.473Z,92957.00
2023-05-19T01:35:47.497Z,92959.00
2023-05-19T01:36:47.523Z,92959.00
2023-05-19T01:37:47.553Z,92957.00
2023-05-19T01:38:47.610Z,92957.00
2023-05-19T01:39:47.602Z,92959.00
2023-05-19T01:40:47.641Z,92955.00
2023-05-19T01:41:47.650Z,92955.00
2023-05-19T01:42:47.670Z,92955.00
2023-05-19T01:43:47.692Z,92959.00
2023-05-19T01:44:47.735Z,92957.00
2023-05-19T01:45:47.798Z,92955.00
2023-05-19T01:46:47.808Z,92957.00
2023-05-19T01:47:47.856Z,92957.00
2023-05-19T01:48:47.818Z,92957.00
2023-05-19T01:49:47.847Z,92957.00
2023-05-19T01:50:47.866Z,92957.00
2023-05-19T01:51:47.899Z,92955.00
2023-05-19T01:52:47.940Z,92955.00
2023-05-19T01:53:47.958Z,92953.00
2023-05-19T01:54:47.995Z,92955.00
2023-05-19T01:55:48.042Z,92955.00
2023-05-19T01:56:48.055Z,92953.00
2023-05-19T01:57:48.052Z,92955.00
2023-05-19T01:58:48.096Z,92957.00
2023-05-19T01:59:48.109Z,92953.00
2023-05-19T02:00:48.145Z,92959.00
2023-05-19T02:01:48.189Z,92957.00
2023-05-19T02:02:48.238Z,92961.00
2023-05-19T02:03:48.314Z,92961.00
2023-05-19T02:04:48.277Z,92961.00
2023-05-19T02:05:48.306Z,92959.00
2023-05-19T02:06:48.305Z,92959.00
2023-05-19T02:07:48.348Z,92959.00
2023-05-19T02:08:48.364Z,92961.00
2023-05-19T02:09:48.403Z,92961.00
2023-05-19T02:10:48.437Z,92959.00
2023-05-19T02:11:48.435Z,92963.00
2023-05-19T02:12:48.463Z,92963.00
2023-05-19T02:13:48.572Z,92965.00
2023-05-19T02:14:48.523Z,92967.00
2023-05-19T02:15:48.595Z,92965.00
2023-05-19T02:16:48.573Z,92963.00
2023-05-19T02:17:48.669Z,92963.00
2023-05-19T02:18:48.633Z,92965.00
2023-05-19T02:19:48.828Z,92965.00
2023-05-19T02:20:48.669Z,92963.00
2023-05-19T02:21:48.718Z,92965.00
2023-05-19T02:22:48.726Z,92965.00
2023-05-19T02:23:48.788Z,92961.00
2023-05-19T02:24:48.792Z,92965.00
2023-05-19T02:25:48.828Z,92963.00
2023-05-19T02:26:48.834Z,92963.00
2023-05-19T02:27:48.863Z,92965.00
2023-05-19T02:28:48.895Z,92965.00
2023-05-19T02:29:48.935Z,92961.00
2023-05-19T02:30:48.987Z,92961.00
2023-05-19T02:31:49.012Z,92961.00
2023-05-19T02:32:49.098Z,92961.00
2023-05-19T02:33:49.041Z,92959.00
2023-05-19T02:34:49.085Z,92959.00
2023-05-19T02:35:49.110Z,92961.00
2023-05-19T02:36:49.147Z,92961.00
2023-05-19T02:37:49.165Z,92959.00
2023-05-19T02:38:49.173Z,92959.00
2023-05-19T02:39:49.217Z,92957.00
2023-05-19T02:40:49.233Z,92957.00
2023-05-19T02:41:49.277Z,92955.00
2023-05-19T02:42:49.282Z,92955.00
2023-05-19T02:43:49.337Z,92951.00
2023-05-19T02:44:49.341Z,92951.00
2023-05-19T02:45:49.371Z,92951.00
2023-05-19T02:46:49.551Z,92951.00
2023-05-19T02:47:49.460Z,92947.00
2023-05-19T02:48:49.468Z,92947.00
2023-05-19T02:49:49.512Z,92945.00
2023-05-19T02:50:49.541Z,92943.00
2023-05-19T02:51:49.571Z,92941.00
2023-05-19T02:52:49.680Z,92941.00
2023-05-19T02:53:49.618Z,92941.00
2023-05-19T02:54:49.733Z,92939.00
2023-05-19T02:55:49.686Z,92937.00
2023-05-19T02:56:49.708Z,92939.00
2023-05-19T02:57:49.744Z,92939.00
2023-05-19T02:58:49.766Z,92937.00
2023-05-19T02:59:49.822Z,92937.00
2023-05-19T03:00:49.835Z,92937.00
2023-05-19T03:01:49.969Z,92937.00
2023-05-19T03:02:49.957Z,92935.00
2023-05-19T03:03:50.015Z,92935.00
2023-05-19T03:04:49.951Z,92933.00
2023-05-19T03:05:49.963Z,92933.00
2023-05-19T03:06:50.038Z,92931.00
2023-05-19T03:07:50.031Z,92929.00
2023-05-19T03:08:50.077Z,92928.00
2023-05-19T03:09:50.110Z,92928.00
2023-05-19T03:10:50.118Z,92926.00
2023-05-19T03:11:50.161Z,92928.00
2023-05-19T03:12:50.182Z,92926.00
2023-05-19T03:13:50.227Z,92928.00
2023-05-19T03:14:50.271Z,92928.00
2023-05-19T03:15:50.309Z,92926.00
2023-05-19T03:16:50.417Z,92926.00
2023-05-19T03:17:50.457Z,92926.00
2023-05-19T03:18:50.422Z,92924.00
2023-05-19T03:19:50.397Z,92926.00
2023-05-19T03:20:50.442Z,92924.00
2023-05-19T03:21:50.476Z,92922.00
2023-05-19T03:22:50.522Z,92924.00
2023-05-19T03:23:50.527Z,92918.00
2023-05-19T03:24:50.564Z,92916.00
2023-05-19T03:25:50.586Z,92916.00
2023-05-19T03:26:50.624Z,92916.00
2023-05-19T03:27:50.660Z,92918.00
2023-05-19T03:28:50.682Z,92918.00
2023-05-19T03:29:50.757Z,92918.00
2023-05-19T03:30:50.817Z,92918.00
2023-05-19T03:31:50.809Z,92920.00
2023-05-19T03:32:50.867Z,92920.00
2023-05-19T03:33:50.849Z,92920.00
2023-05-19T03:34:50.892Z,92920.00
2023-05-19T03:35:50.912Z,92920.00
2023-05-19T03:36:50.948Z,92924.00
2023-05-19T03:37:50.975Z,92920.00
2023-05-19T03:38:51.006Z,92920.00
2023-05-19T03:39:51.028Z,92918.00
2023-05-19T03:40:51.097Z,92922.00
2023-05-19T03:41:51.100Z,92918.00
2023-05-19T03:42:51.137Z,92918.00
2023-05-19T03:43:51.153Z,92920.00
2023-05-19T03:44:51.199Z,92920.00
2023-05-19T03:45:51.278Z,92918.00
2023-05-19T03:46:51.256Z,92922.00
2023-05-19T03:47:51.308Z,92922.00
2023-05-19T03:48:51.305Z,92922.00
2023-05-19T03:49:51.367Z,92924.00
2023-05-19T03:50:51.373Z,92924.00
2023-05-19T03:51:51.429Z,92926.00
2023-05-19T03:52:51.438Z,92926.00
2023-05-19T03:53:51.470Z,92929.00
2023-05-19T03:54:51.505Z,92929.00
2023-05-19T03:55:51.531Z,92931.00
2023-05-19T03:56:51.566Z,92931.00
2023-05-19T03:57:51.596Z,92933.00
2023-05-19T03:58:51.635Z,92935.00
2023-05-19T03:59:51.663Z,92937.00
2023-05-19T04:00:51.713Z,92935.00
2023-05-19T04:01:51.822Z,92937.00
2023-05-19T04:02:51.974Z,92937.00
2023-05-19T04:03:51.780Z,92937.00
2023-05-19T04:04:51.878Z,92937.00
2023-05-19T04:05:51.877Z,92937.00
2023-05-19T04:06:51.888Z,92933.00
2023-05-19T04:07:51.938Z,92937.00
2023-05-19T04:08:51.948Z,92939.00
2023-05-19T04:09:52.010Z,92937.00
2023-05-19T04:10:52.008Z,92941.00
2023-05-19T04:11:52.053Z,92937.00
2023-05-19T04:12:52.076Z,92937.00
2023-05-19T04:13:52.187Z,92937.00
2023-05-19T04:14:52.149Z,92937.00
2023-05-19T04:15:52.223Z,92937.00
2023-05-19T04:16:53.115Z,92939.00
2023-05-19T04:17:52.267Z,92937.00
2023-05-19T04:18:52.290Z,92937.00
2023-05-19T04:19:52.327Z,92937.00
2023-05-19T04:20:52.360Z,92939.00
2023-05-19T04:21:52.401Z,92941.00
2023-05-19T04:22:52.420Z,92941.00
2023-05-19T04:23:52.482Z,92945.00
2023-05-19T04:24:52.497Z,92943.00
2023-05-19T04:25:52.531Z,92945.00
2023-05-19T04:26:52.564Z,92943.00
2023-05-19T04:27:52.599Z,92947.00
2023-05-19T04:28:52.641Z,92945.00
2023-05-19T04:29:52.684Z,92943.00
2023-05-19T04:30:52.804Z,92945.00
2023-05-19T04:31:52.755Z,92947.00
2023-05-19T04:32:52.833Z,92949.00
2023-05-19T04:33:52.822Z,92947.00
2023-05-19T04:34:52.852Z,92951.00
2023-05-19T04:35:52.876Z,92951.00
2023-05-19T04:36:53.613Z,92951.00
2023-05-19T04:37:52.958Z,92951.00
2023-05-19T04:38:52.982Z,92949.00
2023-05-19T04:39:53.036Z,92947.00
2023-05-19T04:40:53.059Z,92949.00
2023-05-19T04:41:53.117Z,92947.00
2023-05-19T04:42:53.123Z,92945.00
2023-05-19T04:43:53.282Z,92947.00
2023-05-19T04:44:53.195Z,92947.00
2023-05-19T04:45:53.237Z,92945.00
2023-05-19T04:46:53.299Z,92945.00
2023-05-19T04:47:53.322Z,92945.00
2023-05-19T04:48:53.351Z,92945.00
2023-05-19T04:49:53.381Z,92945.00
2023-05-19T04:50:53.445Z,92947.00
2023-05-19T04:51:55.727Z,92947.00
2023-05-19T04:52:53.622Z,92951.00
2023-05-19T04:53:53.639Z,92951.00
2023-05-19T04:54:53.668Z,92953.00
2023-05-19T04:55:53.714Z,92955.00
2023-05-19T04:56:53.744Z,92959.00
2023-05-19T04:57:53.780Z,92957.00
2023-05-19T04:58:53.821Z,92955.00
2023-05-19T04:59:53.850Z,92955.00
2023-05-19T05:00:53.879Z,92953.00
2023-05-19T05:01:53.987Z,92953.00
2023-05-19T05:02:54.016Z,92957.00
2023-05-19T05:03:54.094Z,92953.00
2023-05-19T05:04:54.020Z,92959.00
2023-05-19T05:05:54.064Z,92959.00
2023-05-19T05:06:54.103Z,92957.00
2023-05-19T05:07:54.248Z,92957.00
2023-05-19T05:08:54.173Z,92959.00
2023-05-19T05:09:54.191Z,92957.00
2023-05-19T05:10:54.249Z,92957.00
2023-05-19T05:11:54.275Z,92957.00
2023-05-19T05:12:54.313Z,92957.00
2023-05-19T05:13:54.328Z,92959.00
2023-05-19T05:14:54.359Z,92959.00
2023-05-19T05:15:54.456Z,92961.00
2023-05-19T05:16:54.491Z,92959.00
2023-05-19T05:17:54.543Z,92963.00
2023-05-19T05:18:54.550Z,92961.00
2023-05-19T05:19:54.562Z,92961.00
2023-05-19T05:20:54.581Z,92963.00
2023-05-19T05:21:54.643Z,92961.00
2023-05-19T05:22:54.649Z,92959.00
2023-05-19T05:23:54.678Z,92961.00
2023-05-19T05:24:54.712Z,92959.00
2023-05-19T05:25:54.747Z,92957.00
2023-05-19T05:26:54.795Z,92957.00
2023-05-19T05:27:54.822Z,92959.00
2023-05-19T05:28:54.874Z,92955.00
2023-05-19T05:29:55.615Z,92955.00
2023-05-19T05:30:54.949Z,92955.00
2023-05-19T05:31:54.952Z,92955.00
2023-05-19T05:32:55.140Z,92955.00
2023-05-19T05:33:55.002Z,92957.00
2023-05-19T05:34:55.041Z,92955.00
2023-05-19T05:35:55.078Z,92955.00
2023-05-19T05:36:55.138Z,92955.00
2023-05-19T05:37:55.144Z,92955.00
2023-05-19T05:38:55.193Z,92955.00
2023-05-19T05:39:55.213Z,92957.00
2023-05-19T05:40:55.251Z,92957.00
2023-05-19T05:41:55.304Z,92957.00
2023-05-19T05:42:55.313Z,92957.00
2023-05-19T05:43:55.363Z,92957.00
2023-05-19T05:44:55.382Z,92955.00
2023-05-19T05:45:55.480Z,92955.00
2023-05-19T05:46:55.453Z,92957.00
2023-05-19T05:47:55.581Z,92957.00
2023-05-19T05:48:55.548Z,92957.00
2023-05-19T05:49:55.541Z,92957.00
2023-05-19T05:50:55.585Z,92955.00
2023-05-19T05:52:05.828Z,92957.00
2023-05-19T05:52:56.632Z,92957.00
2023-05-19T05:53:55.617Z,92957.00
2023-05-19T05:54:55.627Z,92957.00
2023-05-19T05:55:55.629Z,92957.00
2023-05-19T05:56:55.640Z,92957.00
2023-05-19T05:57:55.622Z,92955.00
2023-05-19T05:58:55.640Z,92957.00
2023-05-19T05:59:55.629Z,92951.00
2023-05-19T06:00:55.616Z,92951.00
2023-05-19T06:01:55.653Z,92955.00
2023-05-19T06:02:55.679Z,92949.00
2023-05-19T06:03:55.613Z,92955.00
2023-05-19T06:04:55.657Z,92953.00
2023-05-19T06:05:55.757Z,92951.00
2023-05-19T06:06:55.621Z,92951.00
2023-05-19T06:07:55.646Z,92951.00
2023-05-19T06:08:55.622Z,92949.00
2023-05-19T06:09:55.627Z,92949.00
2023-05-19T06:10:55.668Z,92947.00
2023-05-19T06:11:55.698Z,92949.00
2023-05-19T06:12:55.741Z,92945.00
2023-05-19T06:13:55.748Z,92945.00
2023-05-19T06:14:55.834Z,92947.00
2023-05-19T06:15:55.848Z,92947.00
2023-05-19T06:16:55.870Z,92947.00
2023-05-19T06:17:55.899Z,92945.00
2023-05-19T06:18:55.953Z,92947.00
2023-05-19T06:19:55.959Z,92947.00
2023-05-19T06:20:55.992Z,92945.00
2023-05-19T06:21:56.029Z,92943.00
2023-05-19T06:22:56.051Z,92945.00
2023-05-19T06:23:56.085Z,92945.00
2023-05-19T06:24:56.114Z,92947.00
2023-05-19T06:25:56.156Z,92947.00
2023-05-19T06:26:56.170Z,92947.00
2023-05-19T06:27:56.216Z,92947.00
2023-05-19T06:28:56.225Z,92947.00
2023-05-19T06:29:56.268Z,92947.00
2023-05-19T06:30:56.324Z,92947.00
2023-05-19T06:31:56.490Z,92949.00
2023-05-19T06:32:56.382Z,92951.00
2023-05-19T06:33:56.374Z,92951.00
2023-05-19T06:34:56.387Z,92949.00
2023-05-19T06:35:56.416Z,92947.00
2023-05-19T06:36:56.459Z,92947.00
2023-05-19T06:37:56.469Z,92945.00
2023-05-19T06:38:56.510Z,92945.00
2023-05-19T06:39:56.534Z,92945.00
2023-05-19T06:40:56.575Z,92945.00
2023-05-19T06:41:56.596Z,92945.00
2023-05-19T06:42:56.647Z,92945.00
2023-05-19T06:43:56.651Z,92943.00
2023-05-19T06:44:56.702Z,92943.00
2023-05-19T06:45:56.707Z,92943.00
2023-05-19T06:46:56.759Z,92939.00
2023-05-19T06:47:56.779Z,92941.00
2023-05-19T06:48:56.799Z,92943.00
2023-05-19T06:49:57.666Z,92941.00
2023-05-19T06:50:56.859Z,92939.00
2023-05-19T06:51:56.917Z,92939.00
2023-05-19T06:52:56.921Z,92941.00
2023-05-19T06:53:56.942Z,92939.00
2023-05-19T06:54:56.938Z,92939.00
2023-05-19T06:55:59.885Z,92937.00
2023-05-19T06:56:56.967Z,92935.00
2023-05-19T06:57:56.955Z,92937.00
2023-05-19T06:58:56.945Z,92935.00
2023-05-19T06:59:56.934Z,92937.00
2023-05-19T07:00:56.940Z,92935.00
2023-05-19T07:01:56.953Z,92935.00
2023-05-19T07:02:57.021Z,92937.00
2023-05-19T07:03:57.016Z,92937.00
2023-05-19T07:04:56.927Z,92935.00
2023-05-19T07:05:56.924Z,92937.00
2023-05-19T07:06:56.919Z,92937.00
2023-05-19T07:07:56.923Z,92939.00
2023-05-19T07:08:56.904Z,92941.00
2023-05-19T07:09:56.909Z,92935.00
2023-05-19T07:10:56.896Z,92937.00
2023-05-19T07:11:56.899Z,92933.00
2023-05-19T07:12:56.883Z,92933.00
2023-05-19T07:13:56.885Z,92931.00
2023-05-19T07:14:56.903Z,92931.00
2023-05-19T07:15:56.927Z,92928.00
2023-05-19T07:16:56.929Z,92926.00
2023-05-19T07:17:56.964Z,92928.00
2023-05-19T07:18:56.907Z,92924.00
2023-05-19T07:19:56.872Z,92922.00
2023-05-19T07:20:56.875Z,92924.00
2023-05-19T07:21:56.886Z,92920.00
2023-05-19T07:22:56.864Z,92916.00
2023-05-19T07:23:56.884Z,92916.00
2023-05-19T07:24:56.848Z,92916.00
2023-05-19T07:25:57.046Z,92914.00
2023-05-19T07:26:56.852Z,92914.00
2023-05-19T07:27:56.849Z,92912.00
2023-05-19T07:28:57.684Z,92914.00
2023-05-19T07:29:56.836Z,92904.00
2023-05-19T07:30:56.837Z,92904.00
2023-05-19T07:31:56.888Z,92904.00
2023-05-19T07:32:56.905Z,92898.00
2023-05-19T07:33:56.833Z,92902.00
2023-05-19T07:34:56.842Z,92898.00
2023-05-19T07:35:56.819Z,92896.00
2023-05-19T07:36:56.814Z,92898.00
2023-05-19T07:37:56.811Z,92896.00
2023-05-19T07:38:56.840Z,92896.00
2023-05-19T07:39:56.807Z,92896.00
2023-05-19T07:40:56.817Z,92896.00
2023-05-19T07:41:56.811Z,92896.00
2023-05-19T07:42:56.790Z,92896.00
2023-05-19T07:43:56.821Z,92894.00
2023-05-19T07:44:56.801Z,92890.00
2023-05-19T07:45:56.887Z,92890.00
2023-05-19T07:46:57.209Z,92888.00
2023-05-19T07:47:56.802Z,92886.00
2023-05-19T07:48:56.780Z,92884.00
2023-05-19T07:49:56.779Z,92884.00
2023-05-19T07:50:56.783Z,92881.00
2023-05-19T07:51:56.766Z,92879.00
2023-05-19T07:52:56.780Z,92881.00
2023-05-19T07:53:56.744Z,92881.00
2023-05-19T07:54:56.739Z,92879.00
2023-05-19T07:55:58.496Z,92879.00
2023-05-19T07:56:56.731Z,92879.00
2023-05-19T07:57:56.725Z,92877.00
2023-05-19T07:58:56.713Z,92873.00
2023-05-19T07:59:56.767Z,92875.00
2023-05-19T08:00:56.726Z,92873.00
2023-05-19T08:01:56.712Z,92869.00
2023-05-19T08:02:56.848Z,92869.00
2023-05-19T08:03:56.850Z,92865.00
2023-05-19T08:04:56.854Z,92863.00
2023-05-19T08:05:56.747Z,92861.00
2023-05-19T08:06:56.793Z,92859.00
2023-05-19T08:07:56.826Z,92859.00
2023-05-19T08:08:56.877Z,92859.00
2023-05-19T08:09:56.934Z,92855.00
2023-05-19T08:10:56.982Z,92853.00
2023-05-19T08:11:57.162Z,92853.00
2023-05-19T08:12:57.051Z,92849.00
2023-05-19T08:13:57.060Z,92847.00
2023-05-19T08:14:58.826Z,92845.00
2023-05-19T08:15:57.215Z,92845.00
2023-05-19T08:16:57.110Z,92836.00
2023-05-19T08:17:57.113Z,92836.00
2023-05-19T08:18:57.106Z,92834.00
2023-05-19T08:19:57.081Z,92834.00
2023-05-19T08:20:57.081Z,92832.00
2023-05-19T08:21:57.089Z,92834.00
2023-05-19T08:22:57.062Z,92830.00
2023-05-19T08:23:57.054Z,92830.00
2023-05-19T08:24:57.057Z,92826.00
2023-05-19T08:25:57.028Z,92828.00
2023-05-19T08:26:57.030Z,92822.00
2023-05-19T08:27:57.177Z,92820.00
2023-05-19T08:28:57.010Z,92820.00
2023-05-19T08:29:56.990Z,92816.00
2023-05-19T08:30:57.036Z,92816.00
2023-05-19T08:31:56.993Z,92816.00
2023-05-19T08:32:56.963Z,92814.00
2023-05-19T08:33:56.920Z,92810.00
2023-05-19T08:34:56.907Z,92810.00
2023-05-19T08:35:57.710Z,92810.00
2023-05-19T08:36:56.891Z,92806.00
2023-05-19T08:37:56.894Z,92804.00
2023-05-19T08:38:56.868Z,92802.00
2023-05-19T08:39:56.931Z,92802.00
2023-05-19T08:40:56.840Z,92802.00
2023-05-19T08:41:56.844Z,92798.00
2023-05-19T08:42:56.814Z,92796.00
2023-05-19T08:43:56.791Z,92794.00
2023-05-19T08:44:56.786Z,92792.00
2023-05-19T08:45:56.762Z,92790.00
2023-05-19T08:46:56.842Z,92789.00
2023-05-19T08:47:56.845Z,92785.00
2023-05-19T08:48:56.731Z,92783.00
2023-05-19T08:49:56.714Z,92783.00
2023-05-19T08:50:56.692Z,92781.00
2023-05-19T08:51:56.688Z,92777.00
2023-05-19T08:52:56.663Z,92775.00
2023-05-19T08:53:56.669Z,92775.00
2023-05-19T08:54:56.643Z,92769.00
2023-05-19T08:55:56.649Z,92771.00
2023-05-19T08:56:56.609Z,92767.00
2023-05-19T08:57:56.603Z,92765.00
2023-05-19T08:58:56.599Z,92761.00
2023-05-19T08:59:56.606Z,92761.00
2023-05-19T09:00:56.674Z,92761.00
2023-05-19T09:01:56.700Z,92759.00
2023-05-19T09:03:06.132Z,92757.00
2023-05-19T09:03:57.745Z,92755.00
2023-05-19T09:04:56.740Z,92755.00
2023-05-19T09:05:56.727Z,92757.00
2023-05-19T09:06:56.674Z,92755.00
2023-05-19T09:07:56.642Z,92753.00
2023-05-19T09:08:56.653Z,92751.00
2023-05-19T09:09:56.627Z,92751.00
2023-05-19T09:10:56.602Z,92751.00
2023-05-19T09:11:56.579Z,92745.00
2023-05-19T09:12:56.564Z,92745.00
2023-05-19T09:13:56.561Z,92747.00
2023-05-19T09:14:56.568Z,92745.00
2023-05-19T09:15:56.604Z,92742.00
2023-05-19T09:16:56.664Z,92740.00
2023-05-19T09:17:57.235Z,92745.00
2023-05-19T09:18:56.878Z,92740.00
2023-05-19T09:19:56.706Z,92740.00
2023-05-19T09:20:56.729Z,92738.00
2023-05-19T09:21:56.781Z,92736.00
2023-05-19T09:22:56.774Z,92734.00
2023-05-19T09:23:56.832Z,92730.00
2023-05-19T09:24:56.882Z,92734.00
2023-05-19T09:25:56.875Z,92732.00
2023-05-19T09:26:57.921Z,92732.00
2023-05-19T09:27:56.890Z,92732.00
2023-05-19T09:28:56.869Z,92730.00
2023-05-19T09:29:56.855Z,92726.00
2023-05-19T09:30:56.844Z,92724.00
2023-05-19T09:31:56.860Z,92724.00
2023-05-19T09:32:56.863Z,92724.00
2023-05-19T09:33:56.797Z,92718.00
2023-05-19T09:34:56.807Z,92720.00
2023-05-19T09:35:56.855Z,92722.00
2023-05-19T09:36:56.758Z,92718.00
2023-05-19T09:37:56.742Z,92718.00
2023-05-19T09:38:56.737Z,92716.00
2023-05-19T09:39:56.702Z,92714.00
2023-05-19T09:40:56.696Z,92712.00
2023-05-19T09:41:56.694Z,92710.00
2023-05-19T09:42:56.688Z,92712.00
2023-05-19T09:43:56.713Z,92706.00
2023-05-19T09:44:56.679Z,92708.00
2023-05-19T09:45:56.746Z,92704.00
2023-05-19T09:46:56.672Z,92704.00
2023-05-19T09:47:56.662Z,92702.00
2023-05-19T09:48:56.631Z,92702.00
2023-05-19T09:49:56.628Z,92698.00
2023-05-19T09:50:56.632Z,92698.00
2023-05-19T09:51:56.653Z,92695.00
2023-05-19T09:52:56.609Z,92696.00
2023-05-19T09:53:56.586Z,92695.00
2023-05-19T09:54:56.595Z,92693.00
2023-05-19T09:55:56.557Z,92691.00
2023-05-19T09:56:56.575Z,92693.00
2023-05-19T09:57:56.566Z,92693.00
2023-05-19T09:58:56.534Z,92691.00
2023-05-19T09:59:56.528Z,92689.00
2023-05-19T10:00:56.524Z,92693.00
2023-05-19T10:01:56.621Z,92693.00
2023-05-19T10:02:56.525Z,92693.00
2023-05-19T10:03:56.471Z,92689.00
2023-05-19T10:04:56.516Z,92687.00
2023-05-19T10:05:56.452Z,92687.00
2023-05-19T10:06:56.418Z,92691.00
2023-05-19T10:07:56.397Z,92685.00
2023-05-19T10:08:57.231Z,92687.00
2023-05-19T10:09:58.520Z,92689.00
2023-05-19T10:10:56.344Z,92685.00
2023-05-19T10:11:56.331Z,92681.00
2023-05-19T10:12:56.350Z,92679.00
2023-05-19T10:13:56.394Z,92679.00
2023-05-19T10:14:56.441Z,92679.00
2023-05-19T10:15:59.205Z,92679.00
2023-05-19T10:16:56.753Z,92677.00
2023-05-19T10:17:56.435Z,92675.00
2023-05-19T10:18:56.455Z,92675.00
2023-05-19T10:19:56.390Z,92669.00
2023-05-19T10:20:56.370Z,92675.00
2023-05-19T10:21:56.386Z,92671.00
2023-05-19T10:22:56.345Z,92673.00
2023-05-19T10:23:56.341Z,92669.00
2023-05-19T10:24:56.348Z,92669.00
2023-05-19T10:25:56.309Z,92669.00
2023-05-19T10:26:56.334Z,92665.00
2023-05-19T10:27:56.293Z,92671.00
2023-05-19T10:28:56.276Z,92667.00
2023-05-19T10:29:56.283Z,92659.00
2023-05-19T10:30:56.269Z,92665.00
2023-05-19T10:31:56.355Z,92657.00
2023-05-19T10:32:56.285Z,92657.00
2023-05-19T10:33:56.227Z,92655.00
2023-05-19T10:34:56.241Z,92653.00
2023-05-19T10:35:56.217Z,92655.00
2023-05-19T10:36:56.205Z,92655.00
2023-05-19T10:37:56.198Z,92651.00
2023-05-19T10:38:56.184Z,92655.00
2023-05-19T10:39:56.176Z,92651.00
2023-05-19T10:40:56.186Z,92651.00
2023-05-19T10:41:56.168Z,92649.00
2023-05-19T10:42:56.166Z,92651.00
2023-05-19T10:43:56.136Z,92649.00
2023-05-19T10:44:56.132Z,92649.00
2023-05-19T10:45:56.125Z,92648.00
2023-05-19T10:46:57.110Z,92648.00
2023-05-19T10:47:56.197Z,92649.00
2023-05-19T10:48:56.085Z,92646.00
2023-05-19T10:49:56.127Z,92649.00
2023-05-19T10:50:56.066Z,92651.00
2023-05-19T10:51:56.116Z,92651.00
2023-05-19T10:52:56.046Z,92648.00
2023-05-19T10:53:56.019Z,92649.00
2023-05-19T10:54:56.026Z,92648.00
2023-05-19T10:55:56.075Z,92646.00
2023-05-19T10:56:56.020Z,92648.00
2023-05-19T10:57:55.979Z,92648.00
2023-05-19T10:58:55.978Z,92646.00
2023-05-19T10:59:55.966Z,92642.00
2023-05-19T11:00:55.943Z,92646.00
2023-05-19T11:01:56.000Z,92642.00
2023-05-19T11:02:55.996Z,92646.00
2023-05-19T11:03:56.015Z,92642.00
2023-05-19T11:04:55.953Z,92642.00
2023-05-19T11:05:56.000Z,92642.00
2023-05-19T11:06:56.025Z,92638.00
2023-05-19T11:07:56.137Z,92638.00
2023-05-19T11:08:56.070Z,92638.00
2023-05-19T11:09:56.101Z,92638.00
2023-05-19T11:10:56.142Z,92636.00
2023-05-19T11:11:56.149Z,92636.00
2023-05-19T11:12:58.194Z,92634.00
2023-05-19T11:13:56.258Z,92634.00
2023-05-19T11:14:56.252Z,92632.00
2023-05-19T11:15:56.265Z,92634.00
2023-05-19T11:16:56.322Z,92640.00
2023-05-19T11:17:56.364Z,92634.00
2023-05-19T11:18:56.409Z,92630.00
2023-05-19T11:19:56.382Z,92630.00
2023-05-19T11:20:56.452Z,92628.00
2023-05-19T11:21:56.453Z,92626.00
2023-05-19T11:22:56.483Z,92626.00
2023-05-19T11:23:56.535Z,92624.00
2023-05-19T11:24:56.600Z,92626.00
2023-05-19T11:25:56.568Z,92622.00
2023-05-19T11:26:56.611Z,92620.00
2023-05-19T11:27:56.625Z,92618.00
2023-05-19T11:28:56.658Z,92618.00
2023-05-19T11:29:56.684Z,92616.00
2023-05-19T11:30:56.716Z,92620.00
2023-05-19T11:31:56.759Z,92616.00
2023-05-19T11:32:56.829Z,92618.00
2023-05-19T11:33:56.816Z,92616.00
2023-05-19T11:34:56.831Z,92614.00
2023-05-19T11:35:56.889Z,92614.00
2023-05-19T11:36:56.900Z,92614.00
2023-05-19T11:37:56.955Z,92616.00
2023-05-19T11:38:56.968Z,92612.00
2023-05-19T11:39:56.998Z,92610.00
2023-05-19T11:40:57.031Z,92608.00
2023-05-19T11:41:57.054Z,92608.00
2023-05-19T11:42:57.082Z,92608.00
2023-05-19T11:43:57.115Z,92610.00
2023-05-19T11:44:57.159Z,92612.00